Time,TemperatureF,DewpointF,PressureIn,WindDirection,WindDirectionDegrees,WindSpeedMPH,WindSpeedGustMPH,Humidity,HourlyPrecipIn,Conditions,Clouds,dailyrainin,SolarRadiationWatts/m^2,SoftwareType,DateUTC
2013-02-02 00:00:00,7.3,-14.6,30.21,SSW,202,0.0,0.0,35,0.00,RA,,0.00,0.0,WeatherDisplay:10.37,2013-02-02 05:00:00,
2013-02-02 00:01:00,7.2,-14.8,30.21,South,180,0.0,0.0,35,0.00,RA,,0.00,0.0,WeatherDisplay:10.37,2013-02-02 05:01:00,
2013-02-02 00:03:00,7.2,-14.8,30.21,South,180,0.0,0.0,35,0.00,RA,,0.00,0.0,WeatherDisplay:10.37,2013-02-02 05:03:00,
2013-02-02 00:08:00,7.0,-15.0,30.21,South,180,0.0,0.0,35,0.00,RA,,0.00,0.0,WeatherDisplay:10.37,2013-02-02 05:08:00,
2013-02-02 00:13:00,7.0,-15.0,30.21,South,180,0.0,0.0,35,0.00,CLR,,0.00,0.0,WeatherDisplay:10.37,2013-02-02 05:13:00,
2013-02-02 00:18:00,7.2,-14.8,30.21,South,180,0.0,0.0,35,0.00,CLR,,0.00,0.0,WeatherDisplay:10.37,2013-02-02 05:18:00,
2013-02-02 00:23:00,7.2,-14.8,30.21,South,180,0.0,2.6,35,0.00,CLR,,0.00,0.0,WeatherDisplay:10.37,2013-02-02 05:23:00,
2013-02-02 00:28:00,7.2,-14.8,30.21,SSE,158,0.0,0.0,35,0.51,RA,,0.60,0.0,WeatherDisplay:10.37,2013-02-02 05:28:00,
2013-02-02 00:33:00,7.2,-14.8,30.21,South,180,0.0,0.0,35,0.60,RA,,0.60,0.0,WeatherDisplay:10.37,2013-02-02 05:33:00,
2013-02-02 00:38:00,7.2,-14.8,30.21,South,180,0.0,0.0,35,0.60,RA,,0.60,0.0,WeatherDisplay:10.37,2013-02-02 05:38:00,
2013-02-02 00:43:00,7.0,-15.0,30.21,South,180,0.0,0.0,35,0.77,RA,,1.11,0.0,WeatherDisplay:10.37,2013-02-02 05:43:00,
2013-02-02 00:48:00,7.0,-15.0,30.21,SSE,158,0.0,0.0,35,1.62,RA,,1.62,0.0,WeatherDisplay:10.37,2013-02-02 05:48:00,
2013-02-02 00:53:00,7.0,-15.0,30.21,South,180,0.0,2.6,35,1.62,RA,,1.62,0.0,WeatherDisplay:10.37,2013-02-02 05:53:00,
2013-02-02 00:58:00,7.0,-15.0,30.21,SSE,158,0.0,0.0,35,2.01,RA,,2.01,0.0,WeatherDisplay:10.37,2013-02-02 05:58:00,
2013-02-02 01:03:00,7.0,-15.0,30.21,SSE,158,0.0,0.0,35,2.01,RA,,2.01,0.0,WeatherDisplay:10.37,2013-02-02 06:03:00,
2013-02-02 01:08:00,7.0,-15.0,30.21,South,180,0.0,0.0,35,2.01,,,2.01,0.0,WeatherDisplay:10.37,2013-02-02 06:08:00,
2013-02-02 01:13:00,7.0,-15.0,30.18,South,180,0.0,0.0,35,2.01,CLR,,2.01,0.0,WeatherDisplay:10.37,2013-02-02 06:13:00,
2013-02-02 01:18:00,7.2,-14.8,30.18,SSE,158,0.0,0.0,35,2.01,CLR,,2.01,0.0,WeatherDisplay:10.37,2013-02-02 06:18:00,
2013-02-02 01:23:00,7.2,-14.8,30.18,South,180,0.0,0.0,35,2.01,CLR,,2.01,0.0,WeatherDisplay:10.37,2013-02-02 06:23:00,
2013-02-02 01:28:00,7.5,-14.5,30.18,South,180,0.0,0.0,35,1.93,CLR,,2.01,0.0,WeatherDisplay:10.37,2013-02-02 06:28:00,
2013-02-02 01:33:00,7.9,-14.2,30.18,South,180,0.0,2.3,35,1.41,CLR,,2.01,0.0,WeatherDisplay:10.37,2013-02-02 06:33:00,
2013-02-02 01:38:00,8.2,-13.8,30.18,South,180,2.6,4.6,35,1.41,CLR,,2.01,0.0,WeatherDisplay:10.37,2013-02-02 06:38:00,
2013-02-02 01:43:00,8.6,-13.5,30.18,South,180,0.0,4.6,35,1.24,CLR,,2.01,0.0,WeatherDisplay:10.37,2013-02-02 06:43:00,
2013-02-02 01:49:00,8.6,-13.5,30.18,South,180,0.0,3.5,35,0.39,CLR,,2.01,0.0,WeatherDisplay:10.37,2013-02-02 06:49:00,
2013-02-02 01:54:00,8.8,-13.4,30.18,South,180,4.0,4.6,35,0.39,CLR,,2.01,0.0,WeatherDisplay:10.37,2013-02-02 06:54:00,
2013-02-02 01:59:00,8.8,-13.4,30.18,SSW,202,2.6,3.6,35,0.00,CLR,,2.01,0.0,WeatherDisplay:10.37,2013-02-02 06:59:00,
2013-02-02 02:04:00,9.0,-13.2,30.18,South,180,4.5,5.8,35,0.00,CLR,,2.01,0.0,WeatherDisplay:10.37,2013-02-02 07:04:00,
2013-02-02 02:09:00,9.0,-13.2,30.18,SW,225,2.2,5.8,35,1.27,RA,,3.28,0.0,WeatherDisplay:10.37,2013-02-02 07:09:00,
2013-02-02 02:14:00,9.0,-13.2,30.18,SSW,202,3.1,5.4,35,1.48,RA,,3.49,0.0,WeatherDisplay:10.37,2013-02-02 07:14:00,
2013-02-02 02:19:00,9.1,-13.0,30.18,SW,225,2.6,3.5,35,1.61,RA,,3.62,0.0,WeatherDisplay:10.37,2013-02-02 07:19:00,
2013-02-02 02:24:00,9.1,-13.0,30.15,South,180,3.1,4.6,35,3.69,RA,,5.70,0.0,WeatherDisplay:10.37,2013-02-02 07:24:00,
2013-02-02 02:29:00,9.1,-13.0,30.15,SW,225,4.9,5.8,35,4.71,RA,,6.72,0.0,WeatherDisplay:10.37,2013-02-02 07:29:00,
2013-02-02 02:34:00,9.1,-13.0,30.15,South,180,3.6,5.8,35,6.53,RA,,8.84,0.0,WeatherDisplay:10.37,2013-02-02 07:34:00,
2013-02-02 02:39:00,9.1,-13.0,30.15,South,180,3.1,4.6,35,8.38,RA,,10.39,0.0,WeatherDisplay:10.37,2013-02-02 07:39:00,
2013-02-02 02:44:00,9.1,-13.0,30.15,South,180,3.6,5.4,35,8.94,RA,,10.95,0.0,WeatherDisplay:10.37,2013-02-02 07:44:00,
2013-02-02 02:49:00,9.1,-13.0,30.15,South,180,2.6,4.6,35,8.94,RA,,10.95,0.0,WeatherDisplay:10.37,2013-02-02 07:49:00,
2013-02-02 02:54:00,9.1,-13.0,30.15,South,180,2.6,4.6,35,9.59,RA,,11.60,0.0,WeatherDisplay:10.37,2013-02-02 07:54:00,
2013-02-02 02:59:00,9.1,-13.0,30.15,SE,135,2.6,3.5,35,9.59,RA,,11.60,0.0,WeatherDisplay:10.37,2013-02-02 07:59:00,
2013-02-02 03:05:00,9.1,-13.0,30.15,SE,135,3.1,4.6,35,9.59,CLR,,11.81,0.0,WeatherDisplay:10.37,2013-02-02 08:05:00,
2013-02-02 03:10:00,9.1,-13.0,30.15,South,180,2.6,5.8,35,8.54,RA,,11.81,0.0,WeatherDisplay:10.37,2013-02-02 08:10:00,
2013-02-02 03:15:00,9.1,-13.0,30.15,SE,135,2.6,3.5,35,8.32,RA,,11.81,0.0,WeatherDisplay:10.37,2013-02-02 08:15:00,
2013-02-02 03:20:00,9.1,-13.0,30.15,SE,135,2.6,4.0,35,7.80,CLR,,11.81,0.0,WeatherDisplay:10.37,2013-02-02 08:20:00,
2013-02-02 03:25:00,9.1,-13.0,30.15,South,180,3.6,4.6,35,6.11,CLR,,11.81,0.0,WeatherDisplay:10.37,2013-02-02 08:25:00,
2013-02-02 03:30:00,9.3,-12.9,30.15,SSE,158,3.1,4.6,35,5.01,CLR,,11.81,0.0,WeatherDisplay:10.37,2013-02-02 08:30:00,
2013-02-02 03:35:00,9.5,-12.7,30.15,South,180,5.4,6.2,35,3.02,RA,,11.86,0.0,WeatherDisplay:10.37,2013-02-02 08:35:00,
2013-02-02 03:40:00,9.7,-12.5,30.15,South,180,2.6,4.6,35,1.26,RA,,11.86,0.0,WeatherDisplay:10.37,2013-02-02 08:40:00,
2013-02-02 03:45:00,9.7,-12.5,30.15,South,180,4.0,5.9,35,0.91,,,11.86,0.0,WeatherDisplay:10.37,2013-02-02 08:45:00,
2013-02-02 03:50:00,9.9,-12.4,30.15,South,180,2.6,3.6,35,0.34,CLR,,11.86,0.0,WeatherDisplay:10.37,2013-02-02 08:50:00,
2013-02-02 03:55:00,10.0,-12.2,30.12,SE,135,3.6,4.6,35,0.26,CLR,,11.86,0.0,WeatherDisplay:10.37,2013-02-02 08:55:00,
2013-02-02 04:00:00,10.2,-12.1,30.12,South,180,3.6,4.6,35,0.26,CLR,,11.90,0.0,WeatherDisplay:10.37,2013-02-02 09:00:00,
2013-02-02 04:05:00,10.4,-11.9,30.12,SSE,158,4.5,4.6,35,0.30,RA,,11.90,0.0,WeatherDisplay:10.37,2013-02-02 09:05:00,
2013-02-02 04:10:00,10.6,-11.7,30.12,South,180,4.0,5.9,35,0.09,RA,,11.90,0.0,WeatherDisplay:10.37,2013-02-02 09:10:00,
2013-02-02 04:15:00,10.8,-11.6,30.12,South,180,3.6,5.9,35,0.09,CLR,,12.03,0.0,WeatherDisplay:10.37,2013-02-02 09:15:00,
2013-02-02 04:20:00,10.9,-11.4,30.12,SE,135,4.0,5.8,35,0.42,RA,,12.23,0.0,WeatherDisplay:10.37,2013-02-02 09:20:00,
2013-02-02 04:26:00,10.9,-11.4,30.12,South,180,4.0,8.1,35,0.42,RA,,12.23,0.0,WeatherDisplay:10.37,2013-02-02 09:26:00,
2013-02-02 04:31:00,11.1,-11.3,30.12,South,180,4.0,5.9,35,0.42,,,12.23,0.0,WeatherDisplay:10.37,2013-02-02 09:31:00,
2013-02-02 04:36:00,11.1,-11.3,30.12,South,180,4.5,5.8,35,0.37,CLR,,12.23,0.0,WeatherDisplay:10.37,2013-02-02 09:36:00,
2013-02-02 04:41:00,11.3,-11.1,30.12,South,180,5.4,6.9,35,0.37,CLR,,12.23,0.0,WeatherDisplay:10.37,2013-02-02 09:41:00,
2013-02-02 04:46:00,11.5,-10.9,30.12,SSW,202,4.0,5.9,35,0.37,CLR,,12.23,0.0,WeatherDisplay:10.37,2013-02-02 09:46:00,
2013-02-02 04:51:00,11.7,-10.8,30.12,South,180,2.6,5.8,35,0.41,RA,,12.31,0.0,WeatherDisplay:10.37,2013-02-02 09:51:00,
2013-02-02 04:56:00,11.8,-10.6,30.12,SW,225,6.2,8.1,35,0.54,RA,,12.41,0.0,WeatherDisplay:10.37,2013-02-02 09:56:00,
2013-02-02 05:01:00,12.0,-10.4,30.12,SSW,202,4.9,6.9,35,0.58,RA,,12.52,0.0,WeatherDisplay:10.37,2013-02-02 10:01:00,
2013-02-02 05:06:00,12.2,-10.3,30.12,SW,225,4.0,5.8,35,0.76,RA,,12.66,0.0,WeatherDisplay:10.37,2013-02-02 10:06:00,
2013-02-02 05:11:00,12.4,-10.1,30.12,SSW,202,4.5,8.3,35,0.87,RA,,12.83,0.0,WeatherDisplay:10.37,2013-02-02 10:11:00,
2013-02-02 05:16:00,12.6,-10.0,30.12,SW,225,3.6,5.8,35,1.19,RA,,13.09,0.0,WeatherDisplay:10.37,2013-02-02 10:16:00,
2013-02-02 05:21:00,12.6,-10.0,30.12,South,180,5.4,6.9,35,0.85,RA,,13.09,0.0,WeatherDisplay:10.37,2013-02-02 10:21:00,
2013-02-02 05:26:00,12.6,-10.0,30.12,South,180,5.9,8.1,35,0.89,RA,,13.13,0.0,WeatherDisplay:10.37,2013-02-02 10:26:00,
2013-02-02 05:31:00,12.7,-9.8,30.12,SW,225,4.5,8.1,35,0.89,RA,,13.13,0.0,WeatherDisplay:10.37,2013-02-02 10:31:00,
2013-02-02 05:36:00,12.7,-9.8,30.12,SSW,202,6.7,8.7,35,0.89,CLR,,13.13,0.0,WeatherDisplay:10.37,2013-02-02 10:36:00,
2013-02-02 05:41:00,12.7,-9.8,30.12,South,180,6.7,9.2,35,0.89,CLR,,13.13,0.0,WeatherDisplay:10.37,2013-02-02 10:41:00,
2013-02-02 05:46:00,12.7,-9.8,30.12,SW,225,4.5,5.8,35,0.89,CLR,,13.13,0.0,WeatherDisplay:10.37,2013-02-02 10:46:00,
2013-02-02 05:51:00,12.7,-9.8,30.12,South,180,4.5,8.1,35,0.85,CLR,,13.13,0.0,WeatherDisplay:10.37,2013-02-02 10:51:00,
2013-02-02 05:56:00,12.7,-9.8,30.12,South,180,5.4,9.2,35,0.72,CLR,,13.13,0.0,WeatherDisplay:10.37,2013-02-02 10:56:00,
2013-02-02 06:01:00,12.7,-9.8,30.12,South,180,7.1,8.1,35,0.68,CLR,,13.13,0.0,WeatherDisplay:10.37,2013-02-02 11:01:00,
2013-02-02 06:06:00,12.7,-9.8,30.12,South,180,4.9,6.2,35,0.47,CLR,,13.13,0.0,WeatherDisplay:10.37,2013-02-02 11:06:00,
2013-02-02 06:11:00,12.7,-9.8,30.12,SSW,202,4.9,8.1,35,0.35,CLR,,13.13,0.0,WeatherDisplay:10.37,2013-02-02 11:11:00,
2013-02-02 06:16:00,12.7,-9.8,30.12,SSW,202,5.4,8.1,35,0.04,CLR,,13.13,0.0,WeatherDisplay:10.37,2013-02-02 11:16:00,
2013-02-02 06:21:00,12.7,-9.8,30.12,SSW,202,3.1,5.8,35,0.04,CLR,,13.13,0.0,WeatherDisplay:10.37,2013-02-02 11:21:00,
2013-02-02 06:26:00,12.9,-9.6,30.12,South,180,6.7,8.3,35,0.00,CLR,,13.13,0.0,WeatherDisplay:10.37,2013-02-02 11:26:00,
2013-02-02 06:31:00,12.9,-9.6,30.12,South,180,4.5,5.9,35,0.00,CLR,,13.13,0.0,WeatherDisplay:10.37,2013-02-02 11:31:00,
2013-02-02 06:36:00,13.1,-9.5,30.12,SSW,202,4.9,4.9,35,0.00,CLR,,13.13,0.0,WeatherDisplay:10.37,2013-02-02 11:36:00,
2013-02-02 06:41:00,13.1,-9.5,30.12,South,180,5.9,7.6,35,0.00,CLR,,13.13,0.0,WeatherDisplay:10.37,2013-02-02 11:41:00,
2013-02-02 06:46:00,13.3,-9.3,30.12,SW,225,4.9,7.1,35,0.00,CLR,,13.13,0.0,WeatherDisplay:10.37,2013-02-02 11:46:00,
2013-02-02 06:51:00,13.3,-9.3,30.12,SSW,202,5.9,6.2,35,0.00,CLR,,13.13,0.0,WeatherDisplay:10.37,2013-02-02 11:51:00,
2013-02-02 06:56:00,13.3,-9.3,30.12,SW,225,4.9,6.9,35,0.48,RA,,14.30,0.0,WeatherDisplay:10.37,2013-02-02 11:56:00,
2013-02-02 07:01:00,13.5,-9.2,30.12,SSW,202,4.5,6.2,35,1.47,RA,,14.59,0.0,WeatherDisplay:10.37,2013-02-02 12:01:00,
2013-02-02 07:06:00,13.5,-9.2,30.12,South,180,6.2,10.4,35,1.55,RA,,14.72,0.0,WeatherDisplay:10.37,2013-02-02 12:06:00,
2013-02-02 07:11:00,13.5,-9.2,30.12,SSE,158,6.2,7.6,35,1.80,RA,,14.93,0.0,WeatherDisplay:10.37,2013-02-02 12:11:00,
2013-02-02 07:16:00,13.5,-9.2,30.12,SE,135,5.9,8.1,35,1.93,RA,,15.06,0.0,WeatherDisplay:10.37,2013-02-02 12:16:00,
2013-02-02 07:21:00,13.5,-9.2,30.12,SSW,202,5.9,6.7,35,2.05,RA,,15.18,0.0,WeatherDisplay:10.37,2013-02-02 12:21:00,
2013-02-02 07:26:00,13.5,-9.2,30.12,South,180,4.5,6.2,35,2.61,RA,,15.74,0.0,WeatherDisplay:10.37,2013-02-02 12:26:00,
2013-02-02 07:31:00,13.5,-9.2,30.12,South,180,4.5,5.8,35,2.91,RA,,16.81,0.0,WeatherDisplay:10.37,2013-02-02 12:31:00,
2013-02-02 07:36:00,13.6,-9.0,30.12,South,180,4.5,5.9,35,3.69,RA,,17.56,0.0,WeatherDisplay:10.37,2013-02-02 12:36:00,
2013-02-02 07:41:00,13.6,-9.0,30.12,South,180,5.9,8.1,35,4.43,RA,,17.56,0.0,WeatherDisplay:10.37,2013-02-02 12:41:00,
2013-02-02 07:46:00,13.6,-9.0,30.12,South,180,6.7,8.7,35,4.43,RA,,17.56,0.0,WeatherDisplay:10.37,2013-02-02 12:46:00,
2013-02-02 07:51:00,13.6,-9.0,30.12,South,180,4.0,9.2,35,4.99,RA,,18.16,0.0,WeatherDisplay:10.37,2013-02-02 12:51:00,
2013-02-02 07:56:00,13.6,-9.0,30.09,South,180,6.2,8.3,35,4.55,RA,,18.20,0.0,WeatherDisplay:10.37,2013-02-02 12:56:00,
2013-02-02 08:01:00,13.8,-8.8,30.09,South,180,5.4,6.9,35,4.25,RA,,18.85,0.0,WeatherDisplay:10.37,2013-02-02 13:01:00,
2013-02-02 08:06:00,13.8,-8.8,30.09,South,180,5.4,5.9,35,4.13,RA,,18.85,0.0,WeatherDisplay:10.37,2013-02-02 13:06:00,
2013-02-02 08:11:00,14.0,-0.4,30.09,SW,225,6.7,9.2,52,3.92,OVC,,18.85,0.0,WeatherDisplay:10.37,2013-02-02 13:11:00,
2013-02-02 08:16:00,14.2,0.2,30.09,South,180,7.6,10.9,53,3.79,OVC,,18.85,0.0,WeatherDisplay:10.37,2013-02-02 13:16:00,
2013-02-02 08:21:00,14.2,0.6,30.09,SE,135,4.5,6.9,54,3.67,OVC,,18.85,0.0,WeatherDisplay:10.37,2013-02-02 13:21:00,
2013-02-02 08:26:00,14.4,1.1,30.09,South,180,4.9,7.6,55,3.11,OVC,,18.85,0.0,WeatherDisplay:10.37,2013-02-02 13:26:00,
2013-02-02 08:31:00,14.5,1.3,30.09,SSW,202,7.1,9.2,55,2.24,RA,,19.06,0.0,WeatherDisplay:10.37,2013-02-02 13:31:00,
2013-02-02 08:36:00,14.9,2.0,30.09,South,180,6.7,8.7,56,1.54,RA,,19.10,100.0,WeatherDisplay:10.37,2013-02-02 13:36:00,
2013-02-02 08:41:00,15.3,2.3,30.09,SSW,202,5.4,8.1,56,1.54,RA,,19.10,100.0,WeatherDisplay:10.37,2013-02-02 13:41:00,
2013-02-02 08:46:00,15.4,2.5,30.09,South,180,7.1,9.2,56,1.54,OVC,,19.10,100.0,WeatherDisplay:10.37,2013-02-02 13:46:00,
2013-02-02 08:51:00,15.6,2.7,30.09,South,180,8.7,10.4,56,0.94,OVC,,19.10,100.0,WeatherDisplay:10.37,2013-02-02 13:51:00,
2013-02-02 08:56:00,16.0,3.0,30.09,SSE,158,6.2,9.7,56,0.90,OVC,,19.10,100.0,WeatherDisplay:10.37,2013-02-02 13:56:00,
2013-02-02 09:01:00,16.2,3.2,30.09,South,180,5.4,6.9,56,0.29,RA,,19.14,100.0,WeatherDisplay:10.37,2013-02-02 14:01:00,
2013-02-02 09:06:00,16.5,3.5,30.09,South,180,5.9,10.5,56,0.29,RA,,19.14,100.0,WeatherDisplay:10.37,2013-02-02 14:06:00,
2013-02-02 09:11:00,16.7,3.7,30.06,South,180,4.5,6.9,56,0.29,OVC,,19.14,100.0,WeatherDisplay:10.37,2013-02-02 14:11:00,
2013-02-02 09:16:00,16.9,3.9,30.06,South,180,7.1,8.1,56,0.29,OVC,,19.14,200.0,WeatherDisplay:10.37,2013-02-02 14:16:00,
2013-02-02 09:21:00,17.1,4.0,30.06,South,180,6.7,10.5,56,0.29,OVC,,19.14,200.0,WeatherDisplay:10.37,2013-02-02 14:21:00,
2013-02-02 09:26:00,17.4,4.4,30.06,SE,135,7.6,11.5,56,0.29,OVC,,19.14,200.0,WeatherDisplay:10.37,2013-02-02 14:26:00,
2013-02-02 09:31:00,17.6,4.5,30.06,South,180,7.1,10.9,56,0.08,OVC,,19.14,200.0,WeatherDisplay:10.37,2013-02-02 14:31:00,
2013-02-02 09:36:00,17.8,4.3,30.06,South,180,8.1,11.5,55,0.04,OVC,,19.14,200.0,WeatherDisplay:10.37,2013-02-02 14:36:00,
2013-02-02 09:41:00,18.3,5.2,30.06,South,180,5.9,9.7,56,0.04,OVC,,19.14,200.0,WeatherDisplay:10.37,2013-02-02 14:41:00,
2013-02-02 09:46:00,18.3,5.2,30.06,SSW,202,6.2,8.3,56,0.04,OVC,,19.14,200.0,WeatherDisplay:10.37,2013-02-02 14:46:00,
2013-02-02 09:51:00,18.7,5.2,30.06,SSW,202,9.2,10.4,55,0.04,OVC,,19.14,300.0,WeatherDisplay:10.37,2013-02-02 14:51:00,
2013-02-02 09:56:00,18.9,5.3,30.06,South,180,6.7,10.0,55,0.30,RA,,19.88,300.0,WeatherDisplay:10.37,2013-02-02 14:56:00,
2013-02-02 10:01:00,19.0,5.1,30.06,South,180,10.5,15.0,54,1.25,RA,,20.39,300.0,WeatherDisplay:10.37,2013-02-02 15:01:00,
2013-02-02 10:06:00,19.2,5.3,30.06,South,180,7.1,8.1,54,1.99,RA,,21.17,300.0,WeatherDisplay:10.37,2013-02-02 15:06:00,
2013-02-02 10:11:00,19.4,5.0,30.03,South,180,9.7,10.4,53,2.59,RA,,21.73,300.0,WeatherDisplay:10.37,2013-02-02 15:11:00,
2013-02-02 10:16:00,19.6,5.2,30.03,South,180,6.7,12.7,53,3.57,RA,,22.71,300.0,WeatherDisplay:10.37,2013-02-02 15:16:00,
2013-02-02 10:21:00,19.8,5.4,30.03,ESE,112,9.2,10.4,53,4.13,RA,,23.74,300.0,WeatherDisplay:10.37,2013-02-02 15:21:00,
2013-02-02 10:26:00,19.9,5.5,30.03,South,180,8.7,10.4,53,5.83,RA,,24.97,300.0,WeatherDisplay:10.37,2013-02-02 15:26:00,
2013-02-02 10:31:00,19.9,5.5,30.03,South,180,8.3,10.0,53,6.35,RA,,25.49,300.0,WeatherDisplay:10.37,2013-02-02 15:31:00,
2013-02-02 10:36:00,20.1,5.7,30.03,South,180,9.7,12.7,53,7.04,RA,,26.18,300.0,WeatherDisplay:10.37,2013-02-02 15:36:00,
2013-02-02 10:41:00,20.3,5.9,30.00,South,180,8.7,12.7,53,7.08,RA,,26.22,400.0,WeatherDisplay:10.37,2013-02-02 15:41:00,
2013-02-02 10:46:00,20.3,5.9,30.00,South,180,8.7,10.4,53,7.08,RA,,26.22,400.0,WeatherDisplay:10.37,2013-02-02 15:46:00,
2013-02-02 10:51:00,20.3,6.3,30.00,South,180,8.1,10.4,54,7.08,OVC,,26.22,400.0,WeatherDisplay:10.37,2013-02-02 15:51:00,
2013-02-02 10:56:00,20.7,6.6,30.00,South,180,6.7,9.7,54,6.82,OVC,,26.22,500.0,WeatherDisplay:10.37,2013-02-02 15:56:00,
2013-02-02 11:01:00,20.7,6.6,30.00,South,180,8.1,10.9,54,5.83,OVC,,26.22,400.0,WeatherDisplay:10.37,2013-02-02 16:01:00,
2013-02-02 11:06:00,20.7,6.6,30.00,South,180,7.6,11.5,54,5.39,RA,,26.52,400.0,WeatherDisplay:10.37,2013-02-02 16:06:00,
2013-02-02 11:11:00,20.8,6.8,30.00,SW,225,6.7,10.4,54,4.78,RA,,26.52,400.0,WeatherDisplay:10.37,2013-02-02 16:11:00,
2013-02-02 11:16:00,21.2,7.5,30.00,South,180,4.5,5.8,55,3.80,OVC,,26.52,500.0,WeatherDisplay:10.37,2013-02-02 16:16:00,
2013-02-02 11:22:00,21.2,7.5,30.00,South,180,8.1,10.4,55,2.56,OVC,,26.52,400.0,WeatherDisplay:10.37,2013-02-02 16:22:00,
2013-02-02 11:27:00,21.2,7.5,30.00,South,180,7.1,10.4,55,1.15,OVC,,26.52,300.0,WeatherDisplay:10.37,2013-02-02 16:27:00,
2013-02-02 11:32:00,21.2,7.5,30.00,SW,225,8.3,12.8,55,1.02,OVC,,26.52,300.0,WeatherDisplay:10.37,2013-02-02 16:32:00,
2013-02-02 11:37:00,21.2,7.9,30.00,South,180,6.2,9.7,56,0.34,OVC,,26.52,300.0,WeatherDisplay:10.37,2013-02-02 16:37:00,
2013-02-02 11:42:00,21.2,7.9,30.00,SW,225,4.9,8.1,56,0.30,OVC,,26.52,300.0,WeatherDisplay:10.37,2013-02-02 16:42:00,
2013-02-02 11:47:00,21.4,8.1,30.00,SW,225,4.9,9.7,56,0.30,OVC,,26.52,300.0,WeatherDisplay:10.37,2013-02-02 16:47:00,
2013-02-02 11:52:00,21.4,7.7,30.00,South,180,6.7,8.1,55,0.30,OVC,,26.52,400.0,WeatherDisplay:10.37,2013-02-02 16:52:00,
2013-02-02 11:57:00,21.7,8.0,29.97,SW,225,5.4,9.2,55,0.30,OVC,,26.52,300.0,WeatherDisplay:10.37,2013-02-02 16:57:00,
2013-02-02 12:02:00,21.4,7.7,29.97,South,180,8.1,9.2,55,0.26,OVC,,26.52,300.0,WeatherDisplay:10.37,2013-02-02 17:02:00,
2013-02-02 12:07:00,21.4,7.7,29.97,SW,225,7.6,11.5,55,0.00,OVC,,26.52,300.0,WeatherDisplay:10.37,2013-02-02 17:07:00,
2013-02-02 12:12:00,21.2,7.5,29.97,West,270,9.2,12.7,55,0.00,OVC,,26.52,300.0,WeatherDisplay:10.37,2013-02-02 17:12:00,
2013-02-02 12:17:00,21.4,7.7,29.97,South,180,8.1,13.2,55,0.00,OVC,,26.52,300.0,WeatherDisplay:10.37,2013-02-02 17:17:00,
2013-02-02 12:22:00,21.4,8.1,29.97,SSW,202,9.7,13.8,56,0.00,OVC,,26.52,400.0,WeatherDisplay:10.37,2013-02-02 17:22:00,
2013-02-02 12:27:00,21.6,7.9,29.97,SW,225,9.2,12.7,55,0.00,OVC,,26.52,400.0,WeatherDisplay:10.37,2013-02-02 17:27:00,
2013-02-02 12:32:00,21.9,8.2,29.97,SSE,158,6.2,6.9,55,0.00,OVC,,26.52,500.0,WeatherDisplay:10.37,2013-02-02 17:32:00,
2013-02-02 12:37:00,21.9,8.2,29.97,South,180,7.6,10.4,55,0.00,OVC,,26.52,500.0,WeatherDisplay:10.37,2013-02-02 17:37:00,
2013-02-02 12:42:00,22.1,8.4,29.94,South,180,7.1,10.4,55,0.00,OVC,,26.52,400.0,WeatherDisplay:10.37,2013-02-02 17:42:00,
2013-02-02 12:47:00,22.3,8.5,29.94,South,180,4.9,6.2,55,0.00,OVC,,26.52,400.0,WeatherDisplay:10.37,2013-02-02 17:47:00,
2013-02-02 12:52:00,22.6,8.5,29.94,South,180,5.9,9.7,54,0.00,OVC,,26.52,500.0,WeatherDisplay:10.37,2013-02-02 17:52:00,
2013-02-02 12:57:00,22.3,8.1,29.94,SW,225,9.2,10.4,54,0.00,OVC,,26.52,500.0,WeatherDisplay:10.37,2013-02-02 17:57:00,
2013-02-02 13:02:00,22.5,8.3,29.94,SSW,202,6.7,12.8,54,0.00,OVC,,26.52,500.0,WeatherDisplay:10.37,2013-02-02 18:02:00,
2013-02-02 13:07:00,22.5,8.3,29.94,SE,135,8.1,9.2,54,0.00,OVC,,26.52,500.0,WeatherDisplay:10.37,2013-02-02 18:07:00,
2013-02-02 13:12:00,22.8,9.0,29.94,South,180,6.7,8.1,55,0.00,OVC,,26.52,500.0,WeatherDisplay:10.37,2013-02-02 18:12:00,
2013-02-02 13:17:00,23.2,9.0,29.94,SW,225,6.2,9.2,54,0.00,OVC,,26.52,500.0,WeatherDisplay:10.37,2013-02-02 18:17:00,
2013-02-02 13:22:00,23.2,9.0,29.94,South,180,6.2,9.2,54,0.00,OVC,,26.52,500.0,WeatherDisplay:10.37,2013-02-02 18:22:00,
2013-02-02 13:27:00,22.8,8.6,29.94,SSE,158,10.5,11.5,54,0.00,OVC,,26.52,600.0,WeatherDisplay:10.37,2013-02-02 18:27:00,
2013-02-02 13:32:00,23.4,9.1,29.94,South,180,5.9,9.2,54,0.00,OVC,,26.52,500.0,WeatherDisplay:10.37,2013-02-02 18:32:00,
2013-02-02 13:37:00,23.7,9.1,29.94,WNW,292,3.6,5.8,53,0.00,OVC,,26.52,500.0,WeatherDisplay:10.37,2013-02-02 18:37:00,
2013-02-02 13:42:00,23.7,8.6,29.91,South,180,5.4,8.1,52,0.00,OVC,,26.52,500.0,WeatherDisplay:10.37,2013-02-02 18:42:00,
2013-02-02 13:47:00,24.1,9.0,29.91,SW,225,5.4,8.1,52,0.00,OVC,,26.52,400.0,WeatherDisplay:10.37,2013-02-02 18:47:00,
2013-02-02 13:52:00,23.9,8.8,29.91,South,180,5.9,10.5,52,0.00,OVC,,26.52,400.0,WeatherDisplay:10.37,2013-02-02 18:52:00,
2013-02-02 13:57:00,23.7,8.6,29.91,South,180,5.9,5.9,52,0.00,OVC,,26.52,400.0,WeatherDisplay:10.37,2013-02-02 18:57:00,
2013-02-02 14:02:00,23.9,9.2,29.91,WSW,248,4.0,8.3,53,0.00,OVC,,26.52,400.0,WeatherDisplay:10.37,2013-02-02 19:02:00,
2013-02-02 14:07:00,23.7,8.6,29.91,South,180,7.6,12.7,52,0.00,OVC,,26.52,500.0,WeatherDisplay:10.37,2013-02-02 19:07:00,
2013-02-02 14:12:00,23.9,9.2,29.91,SSW,202,7.6,10.5,53,0.00,OVC,,26.52,400.0,WeatherDisplay:10.37,2013-02-02 19:12:00,
2013-02-02 14:17:00,23.7,9.1,29.91,SSW,202,7.6,10.4,53,0.00,OVC,,26.52,300.0,WeatherDisplay:10.37,2013-02-02 19:17:00,
2013-02-02 14:22:00,23.9,9.6,29.91,SW,225,4.9,6.9,54,0.00,OVC,,26.52,300.0,WeatherDisplay:10.37,2013-02-02 19:22:00,
2013-02-02 14:27:00,24.1,9.8,29.91,South,180,4.5,5.8,54,0.00,OVC,,26.52,300.0,WeatherDisplay:10.37,2013-02-02 19:27:00,
2013-02-02 14:32:00,24.1,9.8,29.91,SW,225,6.2,8.1,54,0.00,OVC,,26.52,300.0,WeatherDisplay:10.37,2013-02-02 19:32:00,
2013-02-02 14:37:00,24.1,9.8,29.91,South,180,6.7,8.7,54,0.00,OVC,,26.52,300.0,WeatherDisplay:10.37,2013-02-02 19:37:00,
2013-02-02 14:42:00,24.3,10.4,29.88,SSE,158,5.9,8.3,55,0.00,OVC,,26.52,300.0,WeatherDisplay:10.37,2013-02-02 19:42:00,
2013-02-02 14:47:00,24.4,11.0,29.88,South,180,6.7,8.1,56,0.00,OVC,,26.52,300.0,WeatherDisplay:10.37,2013-02-02 19:47:00,
2013-02-02 14:52:00,24.6,11.1,29.88,South,180,5.4,7.1,56,0.00,OVC,,26.52,300.0,WeatherDisplay:10.37,2013-02-02 19:52:00,
2013-02-02 14:57:00,25.0,11.5,29.91,South,180,5.9,8.1,56,0.00,OVC,,26.52,300.0,WeatherDisplay:10.37,2013-02-02 19:57:00,
2013-02-02 15:02:00,25.2,11.6,29.91,South,180,3.1,4.9,56,0.00,OVC,,26.52,300.0,WeatherDisplay:10.37,2013-02-02 20:02:00,
2013-02-02 15:07:00,25.3,12.2,29.91,West,270,4.0,5.8,57,0.00,OVC,,26.52,300.0,WeatherDisplay:10.37,2013-02-02 20:07:00,
2013-02-02 15:12:00,25.3,12.2,29.88,South,180,4.0,5.8,57,0.00,OVC,,26.52,200.0,WeatherDisplay:10.37,2013-02-02 20:12:00,
2013-02-02 15:17:00,25.3,12.2,29.88,SSE,158,6.2,8.1,57,0.00,OVC,,26.52,200.0,WeatherDisplay:10.37,2013-02-02 20:17:00,
2013-02-02 15:22:00,25.3,12.2,29.88,West,270,4.9,5.8,57,0.00,OVC,,26.52,200.0,WeatherDisplay:10.37,2013-02-02 20:22:00,
2013-02-02 15:27:00,25.5,12.4,29.88,West,270,2.6,4.6,57,0.00,OVC,,26.52,200.0,WeatherDisplay:10.37,2013-02-02 20:27:00,
2013-02-02 15:32:00,25.5,12.4,29.88,SW,225,4.9,5.9,57,0.00,OVC,,26.52,200.0,WeatherDisplay:10.37,2013-02-02 20:32:00,
2013-02-02 15:37:00,25.3,12.6,29.88,SW,225,4.5,6.9,58,0.00,OVC,,26.52,100.0,WeatherDisplay:10.37,2013-02-02 20:37:00,
2013-02-02 15:42:00,25.5,13.2,29.91,South,180,4.9,8.1,59,0.00,OVC,,26.52,100.0,WeatherDisplay:10.37,2013-02-02 20:42:00,
2013-02-02 15:47:00,25.5,13.2,29.91,SSW,202,3.6,5.8,59,0.00,OVC,,26.52,100.0,WeatherDisplay:10.37,2013-02-02 20:47:00,
2013-02-02 15:52:00,25.7,14.1,29.91,SW,225,4.5,5.8,61,0.00,OVC,,26.52,100.0,WeatherDisplay:10.37,2013-02-02 20:52:00,
2013-02-02 15:57:00,25.9,14.6,29.88,West,270,4.5,6.9,62,0.00,OVC,,26.52,100.0,WeatherDisplay:10.37,2013-02-02 20:57:00,
2013-02-02 16:02:00,25.9,15.0,29.88,WSW,248,3.6,5.8,63,0.00,OVC,,26.52,100.0,WeatherDisplay:10.37,2013-02-02 21:02:00,
2013-02-02 16:07:00,26.1,15.5,29.88,West,270,3.6,5.8,64,0.00,OVC,,26.52,100.0,WeatherDisplay:10.37,2013-02-02 21:07:00,
2013-02-02 16:12:00,26.2,15.7,29.88,West,270,4.9,7.1,64,0.00,OVC,,26.52,100.0,WeatherDisplay:10.37,2013-02-02 21:12:00,
2013-02-02 16:17:00,26.2,16.1,29.88,SSW,202,4.5,5.8,65,0.00,OVC,,26.52,100.0,WeatherDisplay:10.37,2013-02-02 21:17:00,
2013-02-02 16:29:00,26.4,16.2,29.88,SW,225,4.5,5.8,65,0.00,OVC,,26.52,100.0,WeatherDisplay:10.37,2013-02-02 21:29:00,
2013-02-02 16:34:00,26.6,16.4,29.88,West,270,3.6,7.6,65,0.00,RA,,26.52,0.0,WeatherDisplay:10.37,2013-02-02 21:34:00,
2013-02-02 16:39:00,26.4,16.2,29.88,SW,225,5.9,8.1,65,0.00,RA,,26.52,0.0,WeatherDisplay:10.37,2013-02-02 21:39:00,
2013-02-02 16:44:00,26.4,16.2,29.88,SW,225,4.0,5.8,65,0.00,OVC,,26.52,0.0,WeatherDisplay:10.37,2013-02-02 21:44:00,
2013-02-02 16:49:00,26.4,15.9,29.88,SW,225,6.2,8.1,64,0.00,OVC,,26.52,0.0,WeatherDisplay:10.37,2013-02-02 21:49:00,
2013-02-02 16:54:00,26.4,15.9,29.88,West,270,4.5,5.8,64,0.00,OVC,,26.52,0.0,WeatherDisplay:10.37,2013-02-02 21:54:00,
2013-02-02 16:59:00,26.4,15.9,29.88,WSW,248,5.4,8.1,64,0.00,OVC,,26.52,0.0,WeatherDisplay:10.37,2013-02-02 21:59:00,
2013-02-02 17:04:00,26.4,15.9,29.88,SW,225,4.0,5.8,64,0.00,OVC,,26.52,0.0,WeatherDisplay:10.37,2013-02-02 22:04:00,
2013-02-02 17:09:00,26.4,15.9,29.88,West,270,3.6,6.2,64,0.00,OVC,,26.52,0.0,WeatherDisplay:10.37,2013-02-02 22:09:00,
2013-02-02 17:15:00,26.4,15.9,29.88,WSW,248,2.6,4.6,64,0.00,OVC,,26.52,0.0,WeatherDisplay:10.37,2013-02-02 22:15:00,
2013-02-02 17:20:00,26.4,15.9,29.88,West,270,4.9,6.2,64,0.00,OVC,,26.52,0.0,WeatherDisplay:10.37,2013-02-02 22:20:00,
2013-02-02 17:25:00,26.4,15.9,29.88,West,270,3.6,4.9,64,0.00,OVC,,26.52,0.0,WeatherDisplay:10.37,2013-02-02 22:25:00,
2013-02-02 17:30:00,26.6,16.1,29.88,SW,225,4.0,5.4,64,0.00,OVC,,26.52,0.0,WeatherDisplay:10.37,2013-02-02 22:30:00,
2013-02-02 17:35:00,26.4,15.9,29.88,WSW,248,4.0,5.8,64,0.00,OVC,,26.52,0.0,WeatherDisplay:10.37,2013-02-02 22:35:00,
2013-02-02 17:40:00,26.6,16.1,29.91,SW,225,4.0,8.1,64,0.00,OVC,,26.52,0.0,WeatherDisplay:10.37,2013-02-02 22:40:00,
2013-02-02 17:45:00,26.6,16.4,29.91,South,180,2.2,7.6,65,0.00,OVC,,26.52,0.0,WeatherDisplay:10.37,2013-02-02 22:45:00,
2013-02-02 17:50:00,26.6,16.4,29.91,West,270,4.9,7.6,65,0.00,OVC,,26.52,0.0,WeatherDisplay:10.37,2013-02-02 22:50:00,
2013-02-02 17:55:00,26.6,16.4,29.88,SSW,202,3.6,5.8,65,0.00,OVC,,26.52,0.0,WeatherDisplay:10.37,2013-02-02 22:55:00,
2013-02-02 18:00:00,26.6,16.4,29.88,SW,225,3.6,4.6,65,0.00,OVC,,26.52,0.0,WeatherDisplay:10.37,2013-02-02 23:00:00,
2013-02-02 18:05:00,26.8,16.6,29.88,SW,225,7.1,10.9,65,0.00,CLR,,26.52,0.0,WeatherDisplay:10.37,2013-02-02 23:05:00,
2013-02-02 18:10:00,26.8,16.6,29.88,SW,225,3.6,4.6,65,0.00,CLR,,26.52,0.0,WeatherDisplay:10.37,2013-02-02 23:10:00,
2013-02-02 18:15:00,27.0,16.8,29.88,SW,225,4.5,6.9,65,0.00,CLR,,26.52,0.0,WeatherDisplay:10.37,2013-02-02 23:15:00,
2013-02-02 18:20:00,27.0,17.1,29.88,WSW,248,4.9,6.9,66,0.00,CLR,,26.52,0.0,WeatherDisplay:10.37,2013-02-02 23:20:00,
2013-02-02 18:25:00,27.0,17.5,29.91,West,270,4.5,6.2,67,0.00,CLR,,26.52,0.0,WeatherDisplay:10.37,2013-02-02 23:25:00,
2013-02-02 18:30:00,27.0,17.5,29.91,West,270,5.4,8.1,67,0.00,CLR,,26.52,0.0,WeatherDisplay:10.37,2013-02-02 23:30:00,
2013-02-02 18:35:00,27.1,18.0,29.91,West,270,4.0,5.8,68,0.00,CLR,,26.52,0.0,WeatherDisplay:10.37,2013-02-02 23:35:00,
2013-02-02 18:40:00,27.1,18.0,29.91,WSW,248,4.9,5.8,68,0.00,CLR,,26.52,0.0,WeatherDisplay:10.37,2013-02-02 23:40:00,
2013-02-02 18:45:00,27.3,18.5,29.91,WNW,292,4.0,6.2,69,0.00,CLR,,26.52,0.0,WeatherDisplay:10.37,2013-02-02 23:45:00,
2013-02-02 18:50:00,27.5,19.0,29.91,WSW,248,5.4,8.1,70,0.00,CLR,,26.52,0.0,WeatherDisplay:10.37,2013-02-02 23:50:00,
2013-02-02 18:55:00,27.7,19.5,29.88,West,270,5.9,8.1,71,0.00,CLR,,26.52,0.0,WeatherDisplay:10.37,2013-02-02 23:55:00,
2013-02-02 19:00:00,27.9,20.0,29.88,West,270,5.4,8.1,72,0.00,CLR,,26.52,0.0,WeatherDisplay:10.37,2013-02-03 00:00:00,
2013-02-02 19:05:00,27.9,20.3,29.88,West,270,5.9,7.1,73,0.00,CLR,,26.52,0.0,WeatherDisplay:10.37,2013-02-03 00:05:00,
2013-02-02 19:10:00,28.0,20.8,29.91,West,270,5.4,5.9,74,0.00,CLR,,26.52,0.0,WeatherDisplay:10.37,2013-02-03 00:10:00,
2013-02-02 19:15:00,27.9,21.0,29.91,WSW,248,4.5,6.9,75,0.00,CLR,,26.52,0.0,WeatherDisplay:10.37,2013-02-03 00:15:00,
2013-02-02 19:20:00,27.9,21.0,29.91,West,270,6.7,9.2,75,0.00,CLR,,26.52,0.0,WeatherDisplay:10.37,2013-02-03 00:20:00,
2013-02-02 19:25:00,27.5,20.3,29.91,WSW,248,5.4,5.8,74,0.00,CLR,,26.52,0.0,WeatherDisplay:10.37,2013-02-03 00:25:00,
2013-02-02 19:30:00,27.1,19.6,29.91,West,270,7.6,9.2,73,0.00,CLR,,26.52,0.0,WeatherDisplay:10.37,2013-02-03 00:30:00,
2013-02-02 19:35:00,27.0,18.5,29.91,NW,315,6.2,8.1,70,0.00,CLR,,26.52,0.0,WeatherDisplay:10.37,2013-02-03 00:35:00,
2013-02-02 19:40:00,26.8,17.6,29.91,West,270,5.9,8.1,68,0.00,CLR,,26.52,0.0,WeatherDisplay:10.37,2013-02-03 00:40:00,
2013-02-02 19:45:00,26.6,17.1,29.91,WNW,292,6.2,10.4,67,0.00,CLR,,26.52,0.0,WeatherDisplay:10.37,2013-02-03 00:45:00,
2013-02-02 19:50:00,26.6,16.8,29.91,West,270,4.5,8.3,66,0.00,CLR,,26.52,0.0,WeatherDisplay:10.37,2013-02-03 00:50:00,
2013-02-02 19:55:00,26.6,16.8,29.91,West,270,3.6,4.9,66,0.00,CLR,,26.52,0.0,WeatherDisplay:10.37,2013-02-03 00:55:00,
2013-02-02 22:44:00,26.6,16.8,29.91,NW,315,4.9,5.8,66,0.00,CLR,,26.52,0.0,WeatherDisplay:10.37,2013-02-03 03:44:00,
2013-02-02 22:49:00,26.8,16.2,29.91,West,270,3.6,5.8,64,0.00,CLR,,26.52,0.0,WeatherDisplay:10.37,2013-02-03 03:49:00,
2013-02-02 22:54:00,26.8,16.2,29.88,WSW,248,4.0,5.8,64,0.00,CLR,,26.52,0.0,WeatherDisplay:10.37,2013-02-03 03:54:00,
2013-02-02 22:59:00,26.8,16.2,29.88,West,270,3.1,5.4,64,0.00,CLR,,26.52,0.0,WeatherDisplay:10.37,2013-02-03 03:59:00,
2013-02-02 23:04:00,26.8,16.2,29.88,WSW,248,4.5,5.8,64,0.00,CLR,,26.52,0.0,WeatherDisplay:10.37,2013-02-03 04:04:00,
2013-02-02 23:09:00,26.8,16.2,29.88,West,270,5.9,8.3,64,0.00,CLR,,26.52,0.0,WeatherDisplay:10.37,2013-02-03 04:09:00,
2013-02-02 23:14:00,26.8,16.2,29.88,West,270,4.9,10.5,64,0.00,CLR,,26.52,0.0,WeatherDisplay:10.37,2013-02-03 04:14:00,
2013-02-02 23:19:00,26.8,16.2,29.88,WNW,292,4.0,6.9,64,0.00,CLR,,26.52,0.0,WeatherDisplay:10.37,2013-02-03 04:19:00,
2013-02-02 23:24:00,26.6,16.1,29.88,NW,315,5.4,5.8,64,0.00,CLR,,26.52,0.0,WeatherDisplay:10.37,2013-02-03 04:24:00,
2013-02-02 23:29:00,26.6,15.7,29.88,SW,225,4.0,5.8,63,0.00,CLR,,26.52,0.0,WeatherDisplay:10.37,2013-02-03 04:29:00,
2013-02-02 23:34:00,26.4,15.5,29.88,WNW,292,5.4,8.1,63,0.00,CLR,,26.52,0.0,WeatherDisplay:10.37,2013-02-03 04:34:00,
2013-02-02 23:39:00,26.2,15.0,29.88,West,270,5.9,7.1,62,0.00,CLR,,26.52,0.0,WeatherDisplay:10.37,2013-02-03 04:39:00,
2013-02-02 23:44:00,26.1,14.1,29.88,WSW,248,5.4,11.5,60,0.00,CLR,,26.52,0.0,WeatherDisplay:10.37,2013-02-03 04:44:00,
2013-02-02 23:49:00,25.9,12.3,29.88,West,270,5.9,9.2,56,0.00,CLR,,26.52,0.0,WeatherDisplay:10.37,2013-02-03 04:49:00,
2013-02-02 23:54:00,25.9,12.7,29.88,WNW,292,4.9,6.9,57,0.00,CLR,,26.52,0.0,WeatherDisplay:10.37,2013-02-03 04:54:00,
2013-02-02 23:59:00,25.7,12.2,29.88,WNW,292,4.9,8.1,56,0.00,CLR,,26.52,0.0,WeatherDisplay:10.37,2013-02-03 04:59:00,